L'gov, Russia
Current Conditions -  °F | °C
As of 9:00 AM on Sunday 23 Nov 2014 (Local Time) from UUOB Reporting Station
Haze Haze  
Wind Chill: -12°   Ceiling: 500
Heat Index: -7°   Visibility: 2.5mi
Dew Point: -8°   Wind: 7mph
Humidity: 93%   Direction: 70°ENE
Pressure: 30.42"   Gusts: NA
Location:  51.65°N, 35.28°E
Report Text: UUOB 230600Z 07003MPS 4000 BR OVC005 M07/M08 Q1030 29090060NOSIG
Loading
Personal Weather Stations






























Interactive Weather Map New forecast layout! Learn more

10-Day Weather Forecast

Advertisements
Track Severe Weather on mobile